sensor_id;sensor_type;location;lat;lon;timestamp;pressure;altitude;pressure_sealevel;temperature;humidity
15634;BME280;14654;48.898;8.308;2023-04-29T00:00:00;99963.75;;;13.69;100.00
15634;BME280;14654;48.898;8.308;2023-04-29T00:02:26;99959.50;;;13.67;100.00
15634;BME280;14654;48.898;8.308;2023-04-29T00:04:52;99958.69;;;13.65;100.00
15634;BME280;14654;48.898;8.308;2023-04-29T00:07:18;99958.69;;;13.65;100.00
15634;BME280;14654;48.898;8.308;2023-04-29T00:09:43;99969.13;;;13.63;100.00
15634;BME280;14654;48.898;8.308;2023-04-29T00:12:09;99957.91;;;13.61;100.00
15634;BME280;14654;48.898;8.308;2023-04-29T00:14:35;99957.09;;;13.61;100.00
15634;BME280;14654;48.898;8.308;2023-04-29T00:17:00;99964.09;;;13.57;100.00
15634;BME280;14654;48.898;8.308;2023-04-29T00:19:25;99959.78;;;13.56;100.00
15634;BME280;14654;48.898;8.308;2023-04-29T00:21:50;99962.44;;;13.54;100.00
15634;BME280;14654;48.898;8.308;2023-04-29T00:24:16;99969.41;;;13.52;100.00
15634;BME280;14654;48.898;8.308;2023-04-29T00:26:41;99967.75;;;13.50;100.00
15634;BME280;14654;48.898;8.308;2023-04-29T00:29:08;99966.06;;;13.49;100.00
15634;BME280;14654;48.898;8.308;2023-04-29T00:31:33;99966.97;;;13.46;100.00
15634;BME280;14654;48.898;8.308;2023-04-29T00:33:58;99970.47;;;13.45;100.00
15634;BME280;14654;48.898;8.308;2023-04-29T00:36:24;99967.00;;;13.45;100.00
15634;BME280;14654;48.898;8.308;2023-04-29T00:38:50;99965.31;;;13.44;100.00
15634;BME280;14654;48.898;8.308;2023-04-29T00:41:15;99967.06;;;13.43;100.00
15634;BME280;14654;48.898;8.308;2023-04-29T00:43:40;99970.56;;;13.42;100.00
15634;BME280;14654;48.898;8.308;2023-04-29T00:46:06;99969.75;;;13.40;100.00
15634;BME280;14654;48.898;8.308;2023-04-29T00:48:31;99968.06;;;13.37;100.00
15634;BME280;14654;48.898;8.308;2023-04-29T00:50:57;99970.66;;;13.36;100.00
15634;BME280;14654;48.898;8.308;2023-04-29T00:53:23;99971.56;;;13.35;100.00
15634;BME280;14654;48.898;8.308;2023-04-29T00:55:49;99974.16;;;13.35;100.00
15634;BME280;14654;48.898;8.308;2023-04-29T00:58:17;99984.63;;;13.32;100.00
15634;BME280;14654;48.898;8.308;2023-04-29T01:00:42;99986.44;;;13.30;100.00
15634;BME280;14654;48.898;8.308;2023-04-29T01:03:08;99989.06;;;13.28;100.00
15634;BME280;14654;48.898;8.308;2023-04-29T01:05:33;99983.91;;;13.26;100.00
15634;BME280;14654;48.898;8.308;2023-04-29T01:08:15;99980.50;;;13.24;100.00
15634;BME280;14654;48.898;8.308;2023-04-29T01:11:08;99986.66;;;13.20;100.00
15634;BME280;14654;48.898;8.308;2023-04-29T01:13:54;99980.63;;;13.20;100.00
15634;BME280;14654;48.898;8.308;2023-04-29T01:16:28;99983.31;;;13.15;100.00
15634;BME280;14654;48.898;8.308;2023-04-29T01:19:01;99988.53;;;13.14;100.00
15634;BME280;14654;48.898;8.308;2023-04-29T01:21:31;99983.41;;;13.10;100.00
15634;BME280;14654;48.898;8.308;2023-04-29T01:23:56;99985.19;;;13.08;100.00
15634;BME280;14654;48.898;8.308;2023-04-29T01:26:22;99985.25;;;13.07;100.00
15634;BME280;14654;48.898;8.308;2023-04-29T01:29:12;99984.41;;;13.05;100.00
15634;BME280;14654;48.898;8.308;2023-04-29T01:31:48;99982.72;;;13.04;100.00
15634;BME280;14654;48.898;8.308;2023-04-29T01:34:18;99987.97;;;13.02;100.00
15634;BME280;14654;48.898;8.308;2023-04-29T01:36:59;99985.31;;;13.04;100.00
15634;BME280;14654;48.898;8.308;2023-04-29T01:42:21;99984.41;;;13.06;100.00
15634;BME280;14654;48.898;8.308;2023-04-29T01:44:50;99979.97;;;13.10;100.00
15634;BME280;14654;48.898;8.308;2023-04-29T01:47:17;99978.16;;;13.14;100.00
15634;BME280;14654;48.898;8.308;2023-04-29T01:49:43;99977.31;;;13.13;100.00
15634;BME280;14654;48.898;8.308;2023-04-29T01:52:11;99982.47;;;13.15;100.00
15634;BME280;14654;48.898;8.308;2023-04-29T01:54:36;99981.53;;;13.17;100.00
15634;BME280;14654;48.898;8.308;2023-04-29T01:57:02;99980.53;;;13.23;100.00
15634;BME280;14654;48.898;8.308;2023-04-29T01:59:27;99989.09;;;13.26;100.00
15634;BME280;14654;48.898;8.308;2023-04-29T02:01:53;99991.66;;;13.28;100.00
15634;BME280;14654;48.898;8.308;2023-04-29T02:04:20;99988.22;;;13.27;100.00
15634;BME280;14654;48.898;8.308;2023-04-29T02:06:45;99987.41;;;13.25;100.00
15634;BME280;14654;48.898;8.308;2023-04-29T02:09:11;99989.22;;;13.22;100.00
15634;BME280;14654;48.898;8.308;2023-04-29T02:11:36;99994.44;;;13.20;100.00
15634;BME280;14654;48.898;8.308;2023-04-29T02:14:01;99997.09;;;13.17;100.00
15634;BME280;14654;48.898;8.308;2023-04-29T02:16:27;99992.84;;;13.15;100.00
15634;BME280;14654;48.898;8.308;2023-04-29T02:18:52;99997.22;;;13.14;100.00
15634;BME280;14654;48.898;8.308;2023-04-29T02:21:17;100005.00;;;13.14;100.00
15634;BME280;14654;48.898;8.308;2023-04-29T02:23:43;100005.03;;;13.13;100.00
15634;BME280;14654;48.898;8.308;2023-04-29T02:26:08;99995.56;;;13.10;100.00
15634;BME280;14654;48.898;8.308;2023-04-29T02:28:35;100005.97;;;13.08;100.00
15634;BME280;14654;48.898;8.308;2023-04-29T02:31:01;100007.84;;;13.03;100.00
15634;BME280;14654;48.898;8.308;2023-04-29T02:33:26;100012.28;;;12.98;100.00
15634;BME280;14654;48.898;8.308;2023-04-29T02:35:52;100010.69;;;12.92;100.00
15634;BME280;14654;48.898;8.308;2023-04-29T02:38:17;100007.34;;;12.87;100.00
15634;BME280;14654;48.898;8.308;2023-04-29T02:40:43;100017.00;;;12.82;100.00
15634;BME280;14654;48.898;8.308;2023-04-29T02:43:10;100018.00;;;12.76;100.00
15634;BME280;14654;48.898;8.308;2023-04-29T02:45:36;100018.94;;;12.72;100.00
15634;BME280;14654;48.898;8.308;2023-04-29T02:48:01;100021.59;;;12.69;100.00
15634;BME280;14654;48.898;8.308;2023-04-29T02:50:27;100017.34;;;12.65;100.00
15634;BME280;14654;48.898;8.308;2023-04-29T02:52:53;100019.16;;;12.61;100.00
15634;BME280;14654;48.898;8.308;2023-04-29T02:55:18;100024.41;;;12.58;100.00
15634;BME280;14654;48.898;8.308;2023-04-29T02:57:44;100019.34;;;12.54;100.00
15634;BME280;14654;48.898;8.308;2023-04-29T03:00:09;100028.94;;;12.48;100.00
15634;BME280;14654;48.898;8.308;2023-04-29T03:02:35;100027.31;;;12.44;100.00
15634;BME280;14654;48.898;8.308;2023-04-29T03:05:01;100028.28;;;12.40;100.00
15634;BME280;14654;48.898;8.308;2023-04-29T03:07:26;100027.47;;;12.37;100.00
15634;BME280;14654;48.898;8.308;2023-04-29T03:09:54;100025.81;;;12.32;100.00
15634;BME280;14654;48.898;8.308;2023-04-29T03:12:20;100030.22;;;12.29;100.00
15634;BME280;14654;48.898;8.308;2023-04-29T03:14:45;100029.41;;;12.27;100.00
15634;BME280;14654;48.898;8.308;2023-04-29T03:17:11;100032.09;;;12.22;100.00
15634;BME280;14654;48.898;8.308;2023-04-29T03:19:36;100029.56;;;12.19;100.00
15634;BME280;14654;48.898;8.308;2023-04-29T03:22:02;100028.78;;;12.15;100.00
15634;BME280;14654;48.898;8.308;2023-04-29T03:24:27;100027.94;;;12.12;100.00
15634;BME280;14654;48.898;8.308;2023-04-29T03:26:52;100027.22;;;12.07;100.00
15634;BME280;14654;48.898;8.308;2023-04-29T03:29:18;100025.50;;;12.04;100.00
15634;BME280;14654;48.898;8.308;2023-04-29T03:31:44;100028.19;;;11.99;100.00
15634;BME280;14654;48.898;8.308;2023-04-29T03:34:09;100033.41;;;11.96;100.00
15634;BME280;14654;48.898;8.308;2023-04-29T03:36:35;100030.03;;;11.93;100.00
15634;BME280;14654;48.898;8.308;2023-04-29T03:39:01;100034.38;;;11.90;100.00
15634;BME280;14654;48.898;8.308;2023-04-29T03:41:26;100040.47;;;11.88;100.00
15634;BME280;14654;48.898;8.308;2023-04-29T03:43:51;100039.69;;;11.83;100.00
15634;BME280;14654;48.898;8.308;2023-04-29T03:46:17;100032.88;;;11.79;100.00
15634;BME280;14654;48.898;8.308;2023-04-29T03:48:42;100048.50;;;11.74;100.00
15634;BME280;14654;48.898;8.308;2023-04-29T03:51:07;100050.28;;;11.70;100.00
15634;BME280;14654;48.898;8.308;2023-04-29T03:53:34;100048.63;;;11.68;100.00
15634;BME280;14654;48.898;8.308;2023-04-29T03:56:00;100052.09;;;11.65;100.00
15634;BME280;14654;48.898;8.308;2023-04-29T03:58:26;100054.78;;;11.62;100.00
15634;BME280;14654;48.898;8.308;2023-04-29T04:00:51;100059.13;;;11.58;100.00
15634;BME280;14654;48.898;8.308;2023-04-29T04:03:16;100054.88;;;11.56;100.00
15634;BME280;14654;48.898;8.308;2023-04-29T04:05:41;100063.56;;;11.53;100.00
15634;BME280;14654;48.898;8.308;2023-04-29T04:08:07;100063.56;;;11.52;100.00
15634;BME280;14654;48.898;8.308;2023-04-29T04:10:32;100067.06;;;11.49;100.00
15634;BME280;14654;48.898;8.308;2023-04-29T04:12:57;100062.75;;;11.48;100.00
15634;BME280;14654;48.898;8.308;2023-04-29T04:15:23;100068.88;;;11.46;100.00
15634;BME280;14654;48.898;8.308;2023-04-29T04:17:48;100077.47;;;11.46;100.00
15634;BME280;14654;48.898;8.308;2023-04-29T04:20:13;100067.16;;;11.43;100.00
15634;BME280;14654;48.898;8.308;2023-04-29T04:22:39;100074.09;;;11.42;100.00
15634;BME280;14654;48.898;8.308;2023-04-29T04:25:05;100082.75;;;11.41;100.00
15634;BME280;14654;48.898;8.308;2023-04-29T04:27:31;100096.53;;;11.42;100.00
15634;BME280;14654;48.898;8.308;2023-04-29T04:29:56;100097.44;;;11.41;100.00
15634;BME280;14654;48.898;8.308;2023-04-29T04:32:22;100101.75;;;11.40;100.00
15634;BME280;14654;48.898;8.308;2023-04-29T04:34:48;100104.38;;;11.39;100.00
15634;BME280;14654;48.898;8.308;2023-04-29T04:37:13;100112.13;;;11.40;100.00
15634;BME280;14654;48.898;8.308;2023-04-29T04:39:39;100106.94;;;11.40;100.00
15634;BME280;14654;48.898;8.308;2023-04-29T04:42:04;100109.50;;;11.42;100.00
15634;BME280;14654;48.898;8.308;2023-04-29T04:44:30;100115.50;;;11.44;100.00
15634;BME280;14654;48.898;8.308;2023-04-29T04:46:55;100118.09;;;11.46;100.00
15634;BME280;14654;48.898;8.308;2023-04-29T04:49:22;100123.25;;;11.47;100.00
15634;BME280;14654;48.898;8.308;2023-04-29T04:51:49;100130.06;;;11.53;100.00
15634;BME280;14654;48.898;8.308;2023-04-29T04:54:14;100125.63;;;11.59;100.00
15634;BME280;14654;48.898;8.308;2023-04-29T04:56:39;100130.75;;;11.66;100.00
15634;BME280;14654;48.898;8.308;2023-04-29T04:59:05;100133.25;;;11.72;100.00
15634;BME280;14654;48.898;8.308;2023-04-29T05:01:30;100136.63;;;11.74;100.00
15634;BME280;14654;48.898;8.308;2023-04-29T05:03:56;100139.19;;;11.79;100.00
15634;BME280;14654;48.898;8.308;2023-04-29T05:06:22;100134.75;;;11.85;100.00
15634;BME280;14654;48.898;8.308;2023-04-29T05:08:47;100138.75;;;12.05;100.00
15634;BME280;14654;48.898;8.308;2023-04-29T05:11:20;100143.53;;;12.30;100.00
15634;BME280;14654;48.898;8.308;2023-04-29T05:13:46;100145.06;;;12.40;100.00
15634;BME280;14654;48.898;8.308;2023-04-29T05:16:11;100144.16;;;12.41;100.00
15634;BME280;14654;48.898;8.308;2023-04-29T05:18:37;100147.31;;;12.57;100.00
15634;BME280;14654;48.898;8.308;2023-04-29T05:21:02;100150.13;;;12.90;100.00
15634;BME280;14654;48.898;8.308;2023-04-29T05:23:28;100151.34;;;13.15;100.00
15634;BME280;14654;48.898;8.308;2023-04-29T05:25:53;100157.31;;;13.20;100.00
15634;BME280;14654;48.898;8.308;2023-04-29T05:28:19;100159.50;;;13.37;100.00
15634;BME280;14654;48.898;8.308;2023-04-29T05:30:45;100161.25;;;14.12;100.00
15634;BME280;14654;48.898;8.308;2023-04-29T05:33:10;100161.00;;;14.86;100.00
15634;BME280;14654;48.898;8.308;2023-04-29T05:35:36;100163.88;;;15.06;100.00
15634;BME280;14654;48.898;8.308;2023-04-29T05:38:02;100157.63;;;14.82;100.00
15634;BME280;14654;48.898;8.308;2023-04-29T05:40:27;100153.09;;;14.57;100.00
15634;BME280;14654;48.898;8.308;2023-04-29T05:42:53;100163.06;;;14.41;100.00
15634;BME280;14654;48.898;8.308;2023-04-29T05:45:18;100176.34;;;14.30;100.00
15634;BME280;14654;48.898;8.308;2023-04-29T05:47:43;100172.88;;;14.96;100.00
15634;BME280;14654;48.898;8.308;2023-04-29T05:50:09;100172.19;;;16.03;100.00
15634;BME280;14654;48.898;8.308;2023-04-29T05:52:36;100179.00;;;17.31;100.00
15634;BME280;14654;48.898;8.308;2023-04-29T05:55:01;100172.84;;;18.40;100.00
15634;BME280;14654;48.898;8.308;2023-04-29T05:57:26;100183.16;;;19.23;100.00
15634;BME280;14654;48.898;8.308;2023-04-29T05:59:52;100178.44;;;19.85;97.21
15634;BME280;14654;48.898;8.308;2023-04-29T06:02:19;100181.34;;;20.33;94.95
15634;BME280;14654;48.898;8.308;2023-04-29T06:04:47;100183.97;;;20.67;93.56
15634;BME280;14654;48.898;8.308;2023-04-29T06:07:12;100187.47;;;21.17;91.39
15634;BME280;14654;48.898;8.308;2023-04-29T06:09:38;100187.13;;;21.55;88.55
15634;BME280;14654;48.898;8.308;2023-04-29T06:12:04;100192.19;;;21.58;86.62
15634;BME280;14654;48.898;8.308;2023-04-29T06:14:30;100193.66;;;21.48;87.37
15634;BME280;14654;48.898;8.308;2023-04-29T06:16:55;100201.75;;;21.61;87.54
15634;BME280;14654;48.898;8.308;2023-04-29T06:19:21;100202.69;;;22.06;86.00
15634;BME280;14654;48.898;8.308;2023-04-29T06:21:46;100200.53;;;22.73;83.99
15634;BME280;14654;48.898;8.308;2023-04-29T06:24:11;100196.63;;;23.22;82.31
15634;BME280;14654;48.898;8.308;2023-04-29T06:26:37;100203.09;;;22.74;82.39
15634;BME280;14654;48.898;8.308;2023-04-29T06:29:03;100205.25;;;21.92;85.00
15634;BME280;14654;48.898;8.308;2023-04-29T06:31:28;100209.38;;;21.34;86.74
15634;BME280;14654;48.898;8.308;2023-04-29T06:33:54;100213.41;;;20.91;88.40
15634;BME280;14654;48.898;8.308;2023-04-29T06:36:19;100212.63;;;20.38;90.08
15634;BME280;14654;48.898;8.308;2023-04-29T06:38:44;100223.75;;;19.90;91.17
15634;BME280;14654;48.898;8.308;2023-04-29T06:41:10;100219.53;;;19.49;92.91
15634;BME280;14654;48.898;8.308;2023-04-29T06:43:35;100223.31;;;19.25;93.63
15634;BME280;14654;48.898;8.308;2023-04-29T06:46:01;100229.38;;;19.06;94.16
15634;BME280;14654;48.898;8.308;2023-04-29T06:48:26;100230.13;;;18.89;94.87
15634;BME280;14654;48.898;8.308;2023-04-29T06:50:54;100228.31;;;18.70;93.83
15634;BME280;14654;48.898;8.308;2023-04-29T06:53:19;100231.72;;;18.52;94.56
15634;BME280;14654;48.898;8.308;2023-04-29T06:55:45;100232.25;;;18.39;95.33
15634;BME280;14654;48.898;8.308;2023-04-29T06:58:11;100239.91;;;18.23;95.52
15634;BME280;14654;48.898;8.308;2023-04-29T07:00:37;100236.44;;;18.23;96.01
15634;BME280;14654;48.898;8.308;2023-04-29T07:03:03;100238.47;;;18.57;94.83
15634;BME280;14654;48.898;8.308;2023-04-29T07:05:28;100242.94;;;19.35;92.20
15634;BME280;14654;48.898;8.308;2023-04-29T07:07:53;100242.75;;;19.76;90.25
15634;BME280;14654;48.898;8.308;2023-04-29T07:10:19;100241.31;;;20.25;89.26
15634;BME280;14654;48.898;8.308;2023-04-29T07:12:44;100242.22;;;21.10;86.28
15634;BME280;14654;48.898;8.308;2023-04-29T07:15:09;100247.81;;;21.20;85.36
15634;BME280;14654;48.898;8.308;2023-04-29T07:17:35;100248.69;;;20.69;86.65
15634;BME280;14654;48.898;8.308;2023-04-29T07:20:00;100247.47;;;20.06;88.22
15634;BME280;14654;48.898;8.308;2023-04-29T07:22:26;100261.34;;;19.91;89.17
15634;BME280;14654;48.898;8.308;2023-04-29T07:24:54;100261.59;;;20.74;87.18
15634;BME280;14654;48.898;8.308;2023-04-29T07:27:21;100259.66;;;21.77;84.12
15634;BME280;14654;48.898;8.308;2023-04-29T07:29:47;100257.31;;;22.64;81.54
15634;BME280;14654;48.898;8.308;2023-04-29T07:32:12;100257.91;;;23.12;79.81
15634;BME280;14654;48.898;8.308;2023-04-29T07:34:38;100256.63;;;23.62;78.56
15634;BME280;14654;48.898;8.308;2023-04-29T07:37:03;100261.16;;;23.87;77.16
15634;BME280;14654;48.898;8.308;2023-04-29T07:39:28;100265.81;;;23.41;77.22
15634;BME280;14654;48.898;8.308;2023-04-29T07:41:54;100267.50;;;22.70;78.53
15634;BME280;14654;48.898;8.308;2023-04-29T07:44:20;100274.94;;;22.02;80.37
15634;BME280;14654;48.898;8.308;2023-04-29T07:46:46;100278.31;;;21.40;81.48
15634;BME280;14654;48.898;8.308;2023-04-29T07:49:11;100279.84;;;20.95;83.14
15634;BME280;14654;48.898;8.308;2023-04-29T07:51:40;100279.94;;;20.58;84.14
15634;BME280;14654;48.898;8.308;2023-04-29T07:54:06;100282.81;;;20.71;83.76
15634;BME280;14654;48.898;8.308;2023-04-29T07:56:31;100277.56;;;20.53;83.33
15634;BME280;14654;48.898;8.308;2023-04-29T07:58:58;100276.47;;;20.58;83.29
15634;BME280;14654;48.898;8.308;2023-04-29T08:01:24;100275.69;;;20.91;82.17
15634;BME280;14654;48.898;8.308;2023-04-29T08:03:49;100282.88;;;21.21;81.24
15634;BME280;14654;48.898;8.308;2023-04-29T08:06:15;100278.06;;;21.29;80.94
15634;BME280;14654;48.898;8.308;2023-04-29T08:08:40;100291.47;;;21.24;80.93
15634;BME280;14654;48.898;8.308;2023-04-29T08:11:08;100292.06;;;21.29;80.89
15634;BME280;14654;48.898;8.308;2023-04-29T08:13:39;100293.25;;;21.24;80.93
15634;BME280;14654;48.898;8.308;2023-04-29T08:16:04;100292.69;;;21.01;81.04
15634;BME280;14654;48.898;8.308;2023-04-29T08:18:30;100288.47;;;20.63;81.65
15634;BME280;14654;48.898;8.308;2023-04-29T08:20:55;100298.19;;;20.26;82.47
15634;BME280;14654;48.898;8.308;2023-04-29T08:23:21;100289.25;;;19.93;83.40
15634;BME280;14654;48.898;8.308;2023-04-29T08:25:46;100291.03;;;19.74;84.23
15634;BME280;14654;48.898;8.308;2023-04-29T08:28:11;100299.81;;;19.73;84.12
15634;BME280;14654;48.898;8.308;2023-04-29T08:30:39;100296.69;;;19.84;84.17
15634;BME280;14654;48.898;8.308;2023-04-29T08:33:04;100292.59;;;19.97;83.91
15634;BME280;14654;48.898;8.308;2023-04-29T08:35:30;100291.19;;;20.07;83.27
15634;BME280;14654;48.898;8.308;2023-04-29T08:37:56;100299.22;;;20.04;83.62
15634;BME280;14654;48.898;8.308;2023-04-29T08:40:21;100299.38;;;19.82;83.88
15634;BME280;14654;48.898;8.308;2023-04-29T08:42:47;100296.91;;;19.60;84.45
15634;BME280;14654;48.898;8.308;2023-04-29T08:45:14;100308.75;;;19.49;84.84
15634;BME280;14654;48.898;8.308;2023-04-29T08:47:42;100314.16;;;19.46;85.02
15634;BME280;14654;48.898;8.308;2023-04-29T08:50:08;100311.72;;;19.42;84.73
15634;BME280;14654;48.898;8.308;2023-04-29T08:52:33;100301.94;;;19.45;84.96
15634;BME280;14654;48.898;8.308;2023-04-29T08:55:00;100299.34;;;19.64;84.93
15634;BME280;14654;48.898;8.308;2023-04-29T08:57:27;100306.00;;;19.91;84.07
15634;BME280;14654;48.898;8.308;2023-04-29T08:59:54;100303.34;;;20.10;83.93
15634;BME280;14654;48.898;8.308;2023-04-29T09:02:21;100293.16;;;20.21;82.90
15634;BME280;14654;48.898;8.308;2023-04-29T09:04:54;100310.78;;;20.19;82.01
15634;BME280;14654;48.898;8.308;2023-04-29T09:07:22;100309.31;;;20.14;82.58
15634;BME280;14654;48.898;8.308;2023-04-29T09:09:48;100313.09;;;20.08;82.27
15634;BME280;14654;48.898;8.308;2023-04-29T09:12:15;100305.63;;;19.99;82.49
15634;BME280;14654;48.898;8.308;2023-04-29T09:14:41;100310.50;;;19.89;82.39
15634;BME280;14654;48.898;8.308;2023-04-29T09:17:06;100315.28;;;19.79;82.96
15634;BME280;14654;48.898;8.308;2023-04-29T09:19:35;100324.50;;;19.69;82.47
15634;BME280;14654;48.898;8.308;2023-04-29T09:22:02;100322.53;;;19.55;82.89
15634;BME280;14654;48.898;8.308;2023-04-29T09:24:29;100330.06;;;19.43;83.15
15634;BME280;14654;48.898;8.308;2023-04-29T09:26:56;100326.91;;;19.35;83.26
15634;BME280;14654;48.898;8.308;2023-04-29T09:29:22;100328.88;;;19.30;84.09
15634;BME280;14654;48.898;8.308;2023-04-29T09:31:49;100327.38;;;19.24;83.17
15634;BME280;14654;48.898;8.308;2023-04-29T09:34:15;100322.47;;;19.16;83.36
15634;BME280;14654;48.898;8.308;2023-04-29T09:36:46;100320.94;;;19.12;83.97
15634;BME280;14654;48.898;8.308;2023-04-29T09:39:17;100326.09;;;19.14;83.99
15634;BME280;14654;48.898;8.308;2023-04-29T09:44:15;100329.78;;;19.10;84.48
15634;BME280;14654;48.898;8.308;2023-04-29T09:46:40;100334.97;;;19.11;84.58
15634;BME280;14654;48.898;8.308;2023-04-29T09:49:23;100335.53;;;19.18;84.54
15634;BME280;14654;48.898;8.308;2023-04-29T09:54:29;100330.63;;;19.50;83.86
15634;BME280;14654;48.898;8.308;2023-04-29T09:56:56;100330.31;;;19.56;83.06
15634;BME280;14654;48.898;8.308;2023-04-29T09:59:23;100326.44;;;19.65;83.07
15634;BME280;14654;48.898;8.308;2023-04-29T10:01:51;100329.13;;;19.83;82.88
15634;BME280;14654;48.898;8.308;2023-04-29T10:04:18;100321.38;;;19.99;82.65
15634;BME280;14654;48.898;8.308;2023-04-29T10:06:44;100325.72;;;20.19;82.42
15634;BME280;14654;48.898;8.308;2023-04-29T10:09:13;100322.78;;;20.43;81.87
15634;BME280;14654;48.898;8.308;2023-04-29T10:11:46;100327.13;;;20.61;80.67
15634;BME280;14654;48.898;8.308;2023-04-29T10:14:14;100317.97;;;20.68;79.66
15634;BME280;14654;48.898;8.308;2023-04-29T10:16:48;100321.91;;;20.79;78.70
15634;BME280;14654;48.898;8.308;2023-04-29T10:19:18;100322.59;;;20.82;78.32
15634;BME280;14654;48.898;8.308;2023-04-29T10:21:48;100322.25;;;20.89;78.29
15634;BME280;14654;48.898;8.308;2023-04-29T10:24:16;100329.53;;;21.01;78.35
15634;BME280;14654;48.898;8.308;2023-04-29T10:26:42;100318.25;;;21.15;77.46
15634;BME280;14654;48.898;8.308;2023-04-29T10:29:10;100318.63;;;21.25;77.29
15634;BME280;14654;48.898;8.308;2023-04-29T10:31:36;100311.53;;;21.43;76.80
15634;BME280;14654;48.898;8.308;2023-04-29T10:34:02;100314.88;;;21.62;75.21
15634;BME280;14654;48.898;8.308;2023-04-29T10:36:28;100307.75;;;21.97;74.48
15634;BME280;14654;48.898;8.308;2023-04-29T10:38:58;100303.88;;;22.18;73.16
15634;BME280;14654;48.898;8.308;2023-04-29T10:41:37;100301.94;;;22.52;72.69
15634;BME280;14654;48.898;8.308;2023-04-29T10:44:06;100306.63;;;22.78;71.82
15634;BME280;14654;48.898;8.308;2023-04-29T10:46:32;100301.84;;;22.99;70.98
15634;BME280;14654;48.898;8.308;2023-04-29T10:49:04;100306.34;;;22.97;71.06
15634;BME280;14654;48.898;8.308;2023-04-29T10:51:43;100300.50;;;22.92;71.04
15634;BME280;14654;48.898;8.308;2023-04-29T10:54:18;100299.06;;;22.86;71.31
15634;BME280;14654;48.898;8.308;2023-04-29T10:56:51;100305.59;;;22.95;70.81
15634;BME280;14654;48.898;8.308;2023-04-29T10:59:21;100292.78;;;23.03;70.90
15634;BME280;14654;48.898;8.308;2023-04-29T11:01:48;100293.25;;;22.95;70.46
15634;BME280;14654;48.898;8.308;2023-04-29T11:04:15;100290.97;;;22.75;70.39
15634;BME280;14654;48.898;8.308;2023-04-29T11:06:43;100288.88;;;22.35;71.18
15634;BME280;14654;48.898;8.308;2023-04-29T11:09:25;100287.69;;;21.94;71.82
15634;BME280;14654;48.898;8.308;2023-04-29T11:12:07;100289.28;;;21.48;72.66
15634;BME280;14654;48.898;8.308;2023-04-29T11:17:08;100283.38;;;20.78;74.32
15634;BME280;14654;48.898;8.308;2023-04-29T11:19:40;100284.97;;;20.45;75.02
15634;BME280;14654;48.898;8.308;2023-04-29T11:27:14;100311.47;;;19.08;76.38
15634;BME280;14654;48.898;8.308;2023-04-29T11:29:40;100323.91;;;18.19;79.39
15634;BME280;14654;48.898;8.308;2023-04-29T11:32:06;100322.78;;;17.56;80.71
15634;BME280;14654;48.898;8.308;2023-04-29T11:34:31;100320.41;;;17.26;82.36
15634;BME280;14654;48.898;8.308;2023-04-29T11:36:57;100326.13;;;17.12;83.85
15634;BME280;14654;48.898;8.308;2023-04-29T11:39:22;100324.97;;;16.94;86.27
15634;BME280;14654;48.898;8.308;2023-04-29T11:41:48;100324.34;;;16.87;85.83
15634;BME280;14654;48.898;8.308;2023-04-29T11:44:13;100329.09;;;16.76;86.17
15634;BME280;14654;48.898;8.308;2023-04-29T11:46:39;100325.56;;;16.77;86.28
15634;BME280;14654;48.898;8.308;2023-04-29T11:49:04;100326.78;;;16.92;85.92
15634;BME280;14654;48.898;8.308;2023-04-29T11:51:29;100333.22;;;17.09;85.56
15634;BME280;14654;48.898;8.308;2023-04-29T11:53:56;100333.28;;;17.07;84.27
15634;BME280;14654;48.898;8.308;2023-04-29T11:56:22;100331.63;;;17.04;83.85
15634;BME280;14654;48.898;8.308;2023-04-29T11:58:52;100340.59;;;16.97;82.73
15634;BME280;14654;48.898;8.308;2023-04-29T12:01:19;100341.44;;;16.71;83.44
15634;BME280;14654;48.898;8.308;2023-04-29T12:03:44;100339.03;;;16.65;84.83
15634;BME280;14654;48.898;8.308;2023-04-29T12:06:12;100337.13;;;16.70;84.42
15634;BME280;14654;48.898;8.308;2023-04-29T12:08:37;100343.16;;;16.72;84.31
15634;BME280;14654;48.898;8.308;2023-04-29T12:11:05;100346.53;;;16.75;84.77
15634;BME280;14654;48.898;8.308;2023-04-29T12:13:32;100344.81;;;16.74;85.16
15634;BME280;14654;48.898;8.308;2023-04-29T12:16:00;100347.66;;;16.68;85.59
15634;BME280;14654;48.898;8.308;2023-04-29T12:18:25;100347.91;;;16.60;85.10
15634;BME280;14654;48.898;8.308;2023-04-29T12:20:52;100350.91;;;16.48;85.59
15634;BME280;14654;48.898;8.308;2023-04-29T12:23:19;100356.25;;;16.45;86.38
15634;BME280;14654;48.898;8.308;2023-04-29T12:25:57;100359.91;;;16.39;86.14
15634;BME280;14654;48.898;8.308;2023-04-29T12:28:24;100358.31;;;16.34;87.06
15634;BME280;14654;48.898;8.308;2023-04-29T12:30:51;100359.28;;;16.31;87.10
15634;BME280;14654;48.898;8.308;2023-04-29T12:33:22;100368.31;;;16.21;86.96
15634;BME280;14654;48.898;8.308;2023-04-29T12:35:49;100360.56;;;16.18;88.10
15634;BME280;14654;48.898;8.308;2023-04-29T12:38:19;100361.72;;;16.09;88.27
15634;BME280;14654;48.898;8.308;2023-04-29T12:40:44;100348.72;;;16.07;87.80
15634;BME280;14654;48.898;8.308;2023-04-29T12:43:10;100365.13;;;16.11;88.00
15634;BME280;14654;48.898;8.308;2023-04-29T12:45:37;100362.75;;;16.03;88.19
15634;BME280;14654;48.898;8.308;2023-04-29T12:48:03;100361.03;;;16.02;88.66
15634;BME280;14654;48.898;8.308;2023-04-29T12:50:33;100362.75;;;16.03;88.06
15634;BME280;14654;48.898;8.308;2023-04-29T12:52:59;100363.75;;;15.99;88.09
15634;BME280;14654;48.898;8.308;2023-04-29T12:55:25;100375.88;;;16.02;87.24
15634;BME280;14654;48.898;8.308;2023-04-29T12:57:51;100361.13;;;15.99;86.85
15634;BME280;14654;48.898;8.308;2023-04-29T13:00:16;100366.94;;;16.09;86.17